Terminal Aerodrome Forecast
Issued by NWS

Home | Current Version | Previous Version | Text Only | Print | Product List | Glossary On
Versions: 1 2 3 4 5 6 7 8 9 10 11 12 13 14 15 16 17 18 19 20 21 22 23 24 25
000
FTUS43 KDLH 282100 AAA
TAFHIB
TAF AMD
KHIB 282105Z 2821/2918 12006KT P6SM BKN018 OVC060
     FM290500 16007KT 6SM -PLSN OVC018
     FM290800 14006KT 6SM -FZRA BR OVC007
     FM291300 17007KT 3SM -PLSN OVC006=

USA.gov is the U.S. government's official web portal to all federal, state and local government web resources and services.